MiSS Julia — WDF3749 — position and weather

sailwx.info

Track history (hours):
 
Tides and Currents Weather Stations Pressure Air Temp Water Temp Dewpoint Dewpoint Depression Visibility Wind Speed Wind Dir Waves Ship Positions

MiSS Julia

Owner: K-T Marine, Inc, Perth Amboy, NJ. More information available from US FCC via Universal Licensing System and Coast Guard Vessel Documentation Center.

Last reported at 2018-Jul-13 11:58 UTC. Time now 2018-Jul-23 07:26 UTC.
Position N 40°34' W 074°13'.
Warning: this ship's position is 9 days out of date.

; draft 2 m.

Type: Towing. MMSI: 367443560.

Date/timePositionNaut miles runAvg speedWind from/ knotsBaromVisibWave heightAir tempDewpointWater temp
2018-Jul-13 11:58N 40°34' W 074°13'2 4.9
2018-Jul-13 11:30N 40°32' W 074°15'0 0.2
2018-Jul-13 10:51N 40°32' W 074°15'7 0.4
2018-Jul-12 17:15N 40°39' W 074°11'2 6.4
2018-Jul-12 17:00N 40°39' W 074°09'2 3.5
2018-Jul-12 16:25N 40°39' W 074°07'0 0.1
2018-Jul-12 15:52N 40°39' W 074°07'0 0.0
2018-Jul-12 15:22N 40°39' W 074°07'0 0.0
2018-Jul-12 14:52N 40°39' W 074°07'0 0.0
2018-Jul-12 14:22N 40°39' W 074°07'0 0.0
2018-Jul-12 13:58N 40°39' W 074°07'2 5.3
2018-Jul-12 13:30N 40°39' W 074°10'8 0.3
2018-Jul-11 09:05N 40°32' W 074°15'0 0.0
2018-Jul-11 08:59N 40°32' W 074°15'0 0.0
2018-Jul-11 08:29N 40°32' W 074°15'  
2018-Jul-03 12:13N 40°38' W 074°12'  
Track history (hours):
 
Tides and Currents Weather Stations Pressure Air Temp Water Temp Dewpoint Dewpoint Depression Visibility Wind Speed Wind Dir Waves Ship Positions

MiSS Julia

Owner: K-T Marine, Inc, Perth Amboy, NJ. More information available from US FCC via Universal Licensing System and Coast Guard Vessel Documentation Center.

Last reported at 2018-Jul-13 11:58 UTC. Time now 2018-Jul-23 07:26 UTC.
Position N 40°34' W 074°13'.
Warning: this ship's position is 9 days out of date.

; draft 2 m.

Type: Towing. MMSI: 367443560.

Date/timePositionNaut miles runAvg speedWind from/ knotsBaromVisibWave heightAir tempDewpointWater temp
2018-Jul-13 11:58N 40°34' W 074°13'2 4.9
2018-Jul-13 11:30N 40°32' W 074°15'0 0.2
2018-Jul-13 10:51N 40°32' W 074°15'7 0.4
2018-Jul-12 17:15N 40°39' W 074°11'2 6.4
2018-Jul-12 17:00N 40°39' W 074°09'2 3.5
2018-Jul-12 16:25N 40°39' W 074°07'0 0.1
2018-Jul-12 15:52N 40°39' W 074°07'0 0.0
2018-Jul-12 15:22N 40°39' W 074°07'0 0.0
2018-Jul-12 14:52N 40°39' W 074°07'0 0.0
2018-Jul-12 14:22N 40°39' W 074°07'0 0.0
2018-Jul-12 13:58N 40°39' W 074°07'2 5.3
2018-Jul-12 13:30N 40°39' W 074°10'8 0.3
2018-Jul-11 09:05N 40°32' W 074°15'0 0.0
2018-Jul-11 08:59N 40°32' W 074°15'0 0.0
2018-Jul-11 08:29N 40°32' W 074°15'  
2018-Jul-03 12:13N 40°38' W 074°12'  

Dump ship's entire track history